sensor_id;sensor_type;location;lat;lon;timestamp;pressure;altitude;pressure_sealevel;temperature;humidity
77572;BME280;67214;47.454;18.966;2023-02-22T00:01:38;100214.45;;;8.72;65.99
77572;BME280;67214;47.454;18.966;2023-02-22T00:04:08;100208.84;;;8.59;66.45
77572;BME280;67214;47.454;18.966;2023-02-22T00:06:36;100207.55;;;8.46;66.85
77572;BME280;67214;47.454;18.966;2023-02-22T00:09:04;100211.98;;;8.46;66.88
77572;BME280;67214;47.454;18.966;2023-02-22T00:11:33;100217.88;;;8.44;66.78
77572;BME280;67214;47.454;18.966;2023-02-22T00:14:00;100216.20;;;8.30;67.23
77572;BME280;67214;47.454;18.966;2023-02-22T00:16:28;100215.55;;;8.01;68.08
77572;BME280;67214;47.454;18.966;2023-02-22T00:18:57;100213.27;;;7.77;68.66
77572;BME280;67214;47.454;18.966;2023-02-22T00:21:24;100211.77;;;7.60;69.24
77572;BME280;67214;47.454;18.966;2023-02-22T00:23:51;100217.79;;;7.42;69.73
77572;BME280;67214;47.454;18.966;2023-02-22T00:26:21;100219.19;;;7.48;69.58
77572;BME280;67214;47.454;18.966;2023-02-22T00:28:51;100227.32;;;7.38;69.99
77572;BME280;67214;47.454;18.966;2023-02-22T00:31:20;100218.59;;;7.11;70.86
77572;BME280;67214;47.454;18.966;2023-02-22T00:33:47;100228.83;;;6.95;71.44
77572;BME280;67214;47.454;18.966;2023-02-22T00:36:15;100226.95;;;6.90;71.63
77572;BME280;67214;47.454;18.966;2023-02-22T00:38:42;100235.64;;;6.78;72.11
77572;BME280;67214;47.454;18.966;2023-02-22T00:41:11;100230.48;;;6.70;72.32
77572;BME280;67214;47.454;18.966;2023-02-22T00:43:38;100237.09;;;6.63;72.60
77572;BME280;67214;47.454;18.966;2023-02-22T00:46:06;100239.08;;;6.59;72.66
77572;BME280;67214;47.454;18.966;2023-02-22T00:48:34;100234.25;;;6.66;72.53
77572;BME280;67214;47.454;18.966;2023-02-22T00:51:01;100234.83;;;6.57;72.64
77572;BME280;67214;47.454;18.966;2023-02-22T00:53:29;100233.64;;;6.48;73.04
77572;BME280;67214;47.454;18.966;2023-02-22T00:55:56;100226.97;;;6.35;73.26
77572;BME280;67214;47.454;18.966;2023-02-22T00:58:24;100238.49;;;6.61;72.51
77572;BME280;67214;47.454;18.966;2023-02-22T01:00:52;100228.20;;;6.78;71.97
77572;BME280;67214;47.454;18.966;2023-02-22T01:03:20;100227.11;;;6.68;72.29
77572;BME280;67214;47.454;18.966;2023-02-22T01:05:48;100228.31;;;6.69;72.15
77572;BME280;67214;47.454;18.966;2023-02-22T01:08:16;100219.50;;;6.63;72.17
77572;BME280;67214;47.454;18.966;2023-02-22T01:10:44;100223.45;;;6.49;72.65
77572;BME280;67214;47.454;18.966;2023-02-22T01:13:12;100214.17;;;6.29;73.39
77572;BME280;67214;47.454;18.966;2023-02-22T01:15:41;100212.02;;;6.15;74.06
77572;BME280;67214;47.454;18.966;2023-02-22T01:18:10;100216.51;;;6.20;73.94
77572;BME280;67214;47.454;18.966;2023-02-22T01:20:38;100212.02;;;6.15;74.05
77572;BME280;67214;47.454;18.966;2023-02-22T01:23:06;100221.23;;;6.22;73.89
77572;BME280;67214;47.454;18.966;2023-02-22T01:25:35;100215.09;;;6.28;73.81
77572;BME280;67214;47.454;18.966;2023-02-22T01:28:05;100211.98;;;6.36;73.59
77572;BME280;67214;47.454;18.966;2023-02-22T01:30:34;100222.70;;;6.40;73.34
77572;BME280;67214;47.454;18.966;2023-02-22T01:33:04;100222.23;;;6.40;73.33
77572;BME280;67214;47.454;18.966;2023-02-22T01:35:35;100219.61;;;6.40;73.42
77572;BME280;67214;47.454;18.966;2023-02-22T01:38:05;100217.08;;;6.25;73.77
77572;BME280;67214;47.454;18.966;2023-02-22T01:40:41;100216.25;;;6.10;74.20
77572;BME280;67214;47.454;18.966;2023-02-22T01:43:28;100216.23;;;5.96;74.79
77572;BME280;67214;47.454;18.966;2023-02-22T01:53:47;100223.59;;;5.38;76.33
77572;BME280;67214;47.454;18.966;2023-02-22T01:56:15;100224.69;;;5.27;76.91
77572;BME280;67214;47.454;18.966;2023-02-22T01:58:46;100225.14;;;5.20;77.30
77572;BME280;67214;47.454;18.966;2023-02-22T02:01:16;100217.59;;;5.13;77.34
77572;BME280;67214;47.454;18.966;2023-02-22T02:03:44;100225.45;;;5.06;77.54
77572;BME280;67214;47.454;18.966;2023-02-22T02:06:14;100217.56;;;5.06;77.52
77572;BME280;67214;47.454;18.966;2023-02-22T02:08:46;100215.95;;;4.97;77.34
77572;BME280;67214;47.454;18.966;2023-02-22T02:11:20;100212.33;;;4.91;77.54
77572;BME280;67214;47.454;18.966;2023-02-22T02:13:51;100205.92;;;4.81;77.89
77572;BME280;67214;47.454;18.966;2023-02-22T02:16:26;100218.32;;;4.70;78.10
77572;BME280;67214;47.454;18.966;2023-02-22T02:18:53;100211.65;;;4.64;78.24
77572;BME280;67214;47.454;18.966;2023-02-22T02:24:35;100199.66;;;4.52;78.76
77572;BME280;67214;47.454;18.966;2023-02-22T02:38:24;100220.30;;;4.74;79.13
77572;BME280;67214;47.454;18.966;2023-02-22T02:41:04;100216.89;;;4.80;78.93
77572;BME280;67214;47.454;18.966;2023-02-22T02:46:28;100209.45;;;4.95;78.40
77572;BME280;67214;47.454;18.966;2023-02-22T02:48:57;100223.47;;;5.03;78.18
77572;BME280;67214;47.454;18.966;2023-02-22T02:51:28;100212.23;;;5.08;78.15
77572;BME280;67214;47.454;18.966;2023-02-22T02:53:56;100225.12;;;5.12;78.10
77572;BME280;67214;47.454;18.966;2023-02-22T02:56:24;100222.89;;;5.21;77.97
77572;BME280;67214;47.454;18.966;2023-02-22T02:58:53;100228.43;;;5.23;77.83
77572;BME280;67214;47.454;18.966;2023-02-22T03:01:33;100225.36;;;5.31;77.84
77572;BME280;67214;47.454;18.966;2023-02-22T03:07:01;100215.75;;;5.45;77.20
77572;BME280;67214;47.454;18.966;2023-02-22T03:12:27;100225.30;;;5.46;77.15
77572;BME280;67214;47.454;18.966;2023-02-22T03:20:21;100225.88;;;5.44;77.10
77572;BME280;67214;47.454;18.966;2023-02-22T03:22:50;100229.56;;;5.49;77.08
77572;BME280;67214;47.454;18.966;2023-02-22T03:25:27;100231.34;;;5.48;77.18
77572;BME280;67214;47.454;18.966;2023-02-22T03:27:56;100229.95;;;5.50;77.20
77572;BME280;67214;47.454;18.966;2023-02-22T03:33:08;100226.28;;;5.52;77.19
77572;BME280;67214;47.454;18.966;2023-02-22T03:35:42;100222.34;;;5.52;77.33
77572;BME280;67214;47.454;18.966;2023-02-22T03:38:08;100217.59;;;5.66;76.73
77572;BME280;67214;47.454;18.966;2023-02-22T03:40:43;100221.03;;;5.67;76.66
77572;BME280;67214;47.454;18.966;2023-02-22T03:43:12;100216.27;;;5.66;76.74
77572;BME280;67214;47.454;18.966;2023-02-22T03:45:42;100215.69;;;5.61;77.05
77572;BME280;67214;47.454;18.966;2023-02-22T03:50:43;100211.94;;;5.72;76.80
77572;BME280;67214;47.454;18.966;2023-02-22T03:53:11;100234.89;;;5.77;76.72
77572;BME280;67214;47.454;18.966;2023-02-22T03:55:38;100228.31;;;5.77;76.75
77572;BME280;67214;47.454;18.966;2023-02-22T03:58:08;100230.55;;;5.76;76.83
77572;BME280;67214;47.454;18.966;2023-02-22T04:00:36;100234.23;;;5.81;76.80
77572;BME280;67214;47.454;18.966;2023-02-22T04:03:04;100235.94;;;5.82;76.75
77572;BME280;67214;47.454;18.966;2023-02-22T04:05:31;100231.75;;;5.86;76.58
77572;BME280;67214;47.454;18.966;2023-02-22T04:07:59;100233.41;;;5.87;76.65
77572;BME280;67214;47.454;18.966;2023-02-22T04:10:26;100235.73;;;5.78;76.99
77572;BME280;67214;47.454;18.966;2023-02-22T04:12:54;100236.02;;;5.80;76.94
77572;BME280;67214;47.454;18.966;2023-02-22T04:15:23;100234.89;;;5.77;76.95
77572;BME280;67214;47.454;18.966;2023-02-22T04:17:50;100237.44;;;5.86;76.66
77572;BME280;67214;47.454;18.966;2023-02-22T04:20:18;100230.08;;;5.70;77.23
77572;BME280;67214;47.454;18.966;2023-02-22T04:22:45;100238.63;;;5.66;77.44
77572;BME280;67214;47.454;18.966;2023-02-22T04:25:13;100237.78;;;5.66;77.59
77572;BME280;67214;47.454;18.966;2023-02-22T04:27:41;100232.26;;;5.77;77.59
77572;BME280;67214;47.454;18.966;2023-02-22T04:30:11;100225.22;;;5.85;77.39
77572;BME280;67214;47.454;18.966;2023-02-22T04:32:38;100230.90;;;5.93;77.11
77572;BME280;67214;47.454;18.966;2023-02-22T04:35:06;100218.86;;;5.89;77.29
77572;BME280;67214;47.454;18.966;2023-02-22T04:37:34;100225.55;;;5.94;77.39
77572;BME280;67214;47.454;18.966;2023-02-22T04:40:03;100225.17;;;5.93;77.41
77572;BME280;67214;47.454;18.966;2023-02-22T04:42:35;100219.33;;;5.95;77.30
77572;BME280;67214;47.454;18.966;2023-02-22T04:45:04;100222.34;;;6.03;77.01
77572;BME280;67214;47.454;18.966;2023-02-22T04:47:34;100221.88;;;6.04;77.23
77572;BME280;67214;47.454;18.966;2023-02-22T04:50:05;100224.80;;;6.14;77.10
77572;BME280;67214;47.454;18.966;2023-02-22T04:52:33;100222.91;;;6.16;77.26
77572;BME280;67214;47.454;18.966;2023-02-22T04:55:02;100217.47;;;6.26;77.12
77572;BME280;67214;47.454;18.966;2023-02-22T04:57:30;100232.12;;;6.37;77.03
77572;BME280;67214;47.454;18.966;2023-02-22T04:59:57;100231.36;;;6.49;76.77
77572;BME280;67214;47.454;18.966;2023-02-22T05:02:25;100231.17;;;6.59;76.60
77572;BME280;67214;47.454;18.966;2023-02-22T05:04:53;100232.27;;;6.69;76.40
77572;BME280;67214;47.454;18.966;2023-02-22T05:07:22;100234.13;;;6.81;76.20
77572;BME280;67214;47.454;18.966;2023-02-22T05:09:49;100234.30;;;6.85;76.11
77572;BME280;67214;47.454;18.966;2023-02-22T05:12:16;100216.29;;;6.99;75.78
77572;BME280;67214;47.454;18.966;2023-02-22T05:14:44;100222.17;;;7.10;75.48
77572;BME280;67214;47.454;18.966;2023-02-22T05:17:12;100227.88;;;7.23;75.08
77572;BME280;67214;47.454;18.966;2023-02-22T05:19:39;100230.00;;;7.31;74.86
77572;BME280;67214;47.454;18.966;2023-02-22T05:22:07;100227.32;;;7.38;74.61
77572;BME280;67214;47.454;18.966;2023-02-22T05:24:34;100226.34;;;7.46;74.34
77572;BME280;67214;47.454;18.966;2023-02-22T05:27:02;100222.46;;;7.52;74.13
77572;BME280;67214;47.454;18.966;2023-02-22T05:29:29;100227.00;;;7.62;73.83
77572;BME280;67214;47.454;18.966;2023-02-22T05:31:57;100230.50;;;7.63;73.79
77572;BME280;67214;47.454;18.966;2023-02-22T05:34:25;100238.11;;;7.67;73.51
77572;BME280;67214;47.454;18.966;2023-02-22T05:36:52;100242.61;;;7.72;73.36
77572;BME280;67214;47.454;18.966;2023-02-22T05:39:20;100237.56;;;7.82;73.07
77572;BME280;67214;47.454;18.966;2023-02-22T05:41:47;100241.09;;;7.88;72.88
77572;BME280;67214;47.454;18.966;2023-02-22T05:44:14;100245.28;;;7.98;72.49
77572;BME280;67214;47.454;18.966;2023-02-22T05:46:42;100246.23;;;8.09;72.19
77572;BME280;67214;47.454;18.966;2023-02-22T05:49:09;100251.11;;;8.03;72.49
77572;BME280;67214;47.454;18.966;2023-02-22T05:51:37;100247.55;;;8.09;72.18
77572;BME280;67214;47.454;18.966;2023-02-22T05:54:04;100246.55;;;8.17;71.89
77572;BME280;67214;47.454;18.966;2023-02-22T05:56:32;100252.05;;;8.27;71.49
77572;BME280;67214;47.454;18.966;2023-02-22T05:58:59;100251.39;;;8.30;71.45
77572;BME280;67214;47.454;18.966;2023-02-22T06:01:27;100258.41;;;8.37;71.23
77572;BME280;67214;47.454;18.966;2023-02-22T06:03:55;100264.54;;;8.37;71.24
77572;BME280;67214;47.454;18.966;2023-02-22T06:06:22;100262.11;;;8.47;70.69
77572;BME280;67214;47.454;18.966;2023-02-22T06:08:49;100256.28;;;8.55;70.48
77572;BME280;67214;47.454;18.966;2023-02-22T06:11:17;100266.31;;;8.62;70.32
77572;BME280;67214;47.454;18.966;2023-02-22T06:13:49;100262.17;;;8.71;69.89
77572;BME280;67214;47.454;18.966;2023-02-22T06:16:18;100257.70;;;8.84;69.18
77572;BME280;67214;47.454;18.966;2023-02-22T06:18:47;100264.85;;;8.95;69.05
77572;BME280;67214;47.454;18.966;2023-02-22T06:21:14;100272.33;;;9.01;68.63
77572;BME280;67214;47.454;18.966;2023-02-22T06:23:42;100269.36;;;9.05;68.74
77572;BME280;67214;47.454;18.966;2023-02-22T06:26:10;100272.27;;;9.08;68.63
77572;BME280;67214;47.454;18.966;2023-02-22T06:28:37;100271.20;;;9.10;68.78
77572;BME280;67214;47.454;18.966;2023-02-22T06:31:04;100280.50;;;9.16;68.45
77572;BME280;67214;47.454;18.966;2023-02-22T06:33:32;100277.67;;;9.24;68.14
77572;BME280;67214;47.454;18.966;2023-02-22T06:35:59;100276.35;;;9.30;68.06
77572;BME280;67214;47.454;18.966;2023-02-22T06:38:27;100280.84;;;9.35;68.05
77572;BME280;67214;47.454;18.966;2023-02-22T06:40:54;100288.06;;;9.33;68.20
77572;BME280;67214;47.454;18.966;2023-02-22T06:43:22;100286.64;;;9.40;67.93
77572;BME280;67214;47.454;18.966;2023-02-22T06:45:51;100290.75;;;9.44;67.94
77572;BME280;67214;47.454;18.966;2023-02-22T06:48:19;100290.98;;;9.41;68.26
77572;BME280;67214;47.454;18.966;2023-02-22T06:50:46;100294.44;;;9.36;68.47
77572;BME280;67214;47.454;18.966;2023-02-22T06:53:14;100302.33;;;9.25;69.06
77572;BME280;67214;47.454;18.966;2023-02-22T06:55:41;100299.40;;;9.17;69.23
77572;BME280;67214;47.454;18.966;2023-02-22T06:58:09;100303.08;;;9.09;69.31
77572;BME280;67214;47.454;18.966;2023-02-22T07:00:36;100306.39;;;9.05;69.26
77572;BME280;67214;47.454;18.966;2023-02-22T07:03:04;100305.92;;;9.06;69.04
77572;BME280;67214;47.454;18.966;2023-02-22T07:05:31;100300.78;;;8.92;69.29
77572;BME280;67214;47.454;18.966;2023-02-22T07:08:06;100292.83;;;8.73;69.94
77572;BME280;67214;47.454;18.966;2023-02-22T07:10:35;100306.57;;;8.78;69.90
77572;BME280;67214;47.454;18.966;2023-02-22T07:13:05;100295.09;;;8.72;70.12
77572;BME280;67214;47.454;18.966;2023-02-22T07:15:33;100295.52;;;8.79;70.01
77572;BME280;67214;47.454;18.966;2023-02-22T07:18:01;100295.69;;;8.88;70.03
77572;BME280;67214;47.454;18.966;2023-02-22T07:20:30;100304.91;;;8.96;70.21
77572;BME280;67214;47.454;18.966;2023-02-22T07:22:58;100293.21;;;9.11;69.53
77572;BME280;67214;47.454;18.966;2023-02-22T07:25:26;100301.68;;;9.21;69.10
77572;BME280;67214;47.454;18.966;2023-02-22T07:27:53;100301.67;;;9.16;69.47
77572;BME280;67214;47.454;18.966;2023-02-22T07:30:23;100310.56;;;9.33;68.81
77572;BME280;67214;47.454;18.966;2023-02-22T07:32:52;100302.48;;;9.58;68.04
77572;BME280;67214;47.454;18.966;2023-02-22T07:35:29;100299.77;;;9.71;67.60
77572;BME280;67214;47.454;18.966;2023-02-22T07:37:57;100300.58;;;9.90;67.18
77572;BME280;67214;47.454;18.966;2023-02-22T07:40:25;100294.95;;;10.11;66.41
77572;BME280;67214;47.454;18.966;2023-02-22T07:42:59;100295.38;;;10.17;66.68
77572;BME280;67214;47.454;18.966;2023-02-22T07:45:27;100286.09;;;10.23;66.66
77572;BME280;67214;47.454;18.966;2023-02-22T07:47:55;100302.39;;;10.52;65.05
77572;BME280;67214;47.454;18.966;2023-02-22T07:50:25;100293.25;;;10.39;65.40
77572;BME280;67214;47.454;18.966;2023-02-22T07:52:55;100294.33;;;10.42;65.08
77572;BME280;67214;47.454;18.966;2023-02-22T07:55:24;100294.95;;;10.51;65.01
77572;BME280;67214;47.454;18.966;2023-02-22T07:57:55;100300.48;;;10.54;64.63
77572;BME280;67214;47.454;18.966;2023-02-22T08:00:31;100296.76;;;10.67;64.66
77572;BME280;67214;47.454;18.966;2023-02-22T08:03:01;100300.11;;;10.81;64.34
77572;BME280;67214;47.454;18.966;2023-02-22T08:05:30;100291.56;;;10.83;64.45
77572;BME280;67214;47.454;18.966;2023-02-22T08:07:58;100296.12;;;10.81;64.19
77572;BME280;67214;47.454;18.966;2023-02-22T08:10:25;100296.73;;;10.95;64.28
77572;BME280;67214;47.454;18.966;2023-02-22T08:12:54;100285.88;;;11.04;63.60
77572;BME280;67214;47.454;18.966;2023-02-22T08:15:24;100294.58;;;11.38;63.02
77572;BME280;67214;47.454;18.966;2023-02-22T08:17:53;100284.38;;;11.54;62.37
77572;BME280;67214;47.454;18.966;2023-02-22T08:20:22;100293.18;;;11.65;61.79
77572;BME280;67214;47.454;18.966;2023-02-22T08:22:50;100294.97;;;11.76;61.45
77572;BME280;67214;47.454;18.966;2023-02-22T08:25:19;100299.34;;;11.98;61.37
77572;BME280;67214;47.454;18.966;2023-02-22T08:27:47;100294.82;;;12.25;60.99
77572;BME280;67214;47.454;18.966;2023-02-22T08:30:18;100286.34;;;12.46;60.15
77572;BME280;67214;47.454;18.966;2023-02-22T08:32:47;100278.04;;;12.70;59.11
77572;BME280;67214;47.454;18.966;2023-02-22T08:35:17;100285.94;;;12.66;59.50
77572;BME280;67214;47.454;18.966;2023-02-22T08:37:47;100282.81;;;12.76;58.70
77572;BME280;67214;47.454;18.966;2023-02-22T08:40:17;100295.63;;;12.76;58.74
77572;BME280;67214;47.454;18.966;2023-02-22T08:42:45;100296.86;;;12.63;58.13
77572;BME280;67214;47.454;18.966;2023-02-22T08:45:13;100290.39;;;12.80;58.95
77572;BME280;67214;47.454;18.966;2023-02-22T08:47:41;100298.27;;;13.07;57.97
77572;BME280;67214;47.454;18.966;2023-02-22T08:50:10;100297.81;;;13.32;56.93
77572;BME280;67214;47.454;18.966;2023-02-22T08:52:37;100290.15;;;13.23;56.93
77572;BME280;67214;47.454;18.966;2023-02-22T08:55:05;100290.89;;;13.04;57.39
77572;BME280;67214;47.454;18.966;2023-02-22T08:57:33;100289.80;;;13.07;57.24
77572;BME280;67214;47.454;18.966;2023-02-22T09:00:00;100288.83;;;13.08;57.22
77572;BME280;67214;47.454;18.966;2023-02-22T09:02:28;100289.72;;;12.88;58.34
77572;BME280;67214;47.454;18.966;2023-02-22T09:04:55;100291.50;;;12.93;58.15
77572;BME280;67214;47.454;18.966;2023-02-22T09:07:23;100293.19;;;12.94;58.66
77572;BME280;67214;47.454;18.966;2023-02-22T09:09:50;100288.31;;;12.99;58.63
77572;BME280;67214;47.454;18.966;2023-02-22T09:12:18;100290.76;;;13.12;58.41
77572;BME280;67214;47.454;18.966;2023-02-22T09:14:45;100292.78;;;13.14;58.30
77572;BME280;67214;47.454;18.966;2023-02-22T09:17:14;100281.81;;;13.07;58.14
77572;BME280;67214;47.454;18.966;2023-02-22T09:19:41;100292.66;;;13.25;58.08
77572;BME280;67214;47.454;18.966;2023-02-22T09:22:11;100287.38;;;13.54;57.94
77572;BME280;67214;47.454;18.966;2023-02-22T09:24:38;100292.58;;;13.55;56.83
77572;BME280;67214;47.454;18.966;2023-02-22T09:27:07;100289.20;;;13.43;57.73
77572;BME280;67214;47.454;18.966;2023-02-22T09:29:37;100291.84;;;13.24;57.51
77572;BME280;67214;47.454;18.966;2023-02-22T09:32:04;100282.02;;;13.10;57.07
77572;BME280;67214;47.454;18.966;2023-02-22T09:34:32;100279.16;;;13.07;57.16
77572;BME280;67214;47.454;18.966;2023-02-22T09:37:00;100274.30;;;13.22;57.34
77572;BME280;67214;47.454;18.966;2023-02-22T09:39:30;100283.26;;;13.21;56.93
77572;BME280;67214;47.454;18.966;2023-02-22T09:44:45;100276.42;;;13.37;55.81
77572;BME280;67214;47.454;18.966;2023-02-22T09:47:16;100275.95;;;13.47;55.10
77572;BME280;67214;47.454;18.966;2023-02-22T09:49:53;100272.05;;;13.61;55.99
77572;BME280;67214;47.454;18.966;2023-02-22T09:52:29;100279.81;;;13.59;57.10
77572;BME280;67214;47.454;18.966;2023-02-22T09:57:40;100280.92;;;13.46;57.70
77572;BME280;67214;47.454;18.966;2023-02-22T10:00:18;100278.33;;;13.50;57.67
77572;BME280;67214;47.454;18.966;2023-02-22T10:03:07;100281.97;;;13.49;57.07
77572;BME280;67214;47.454;18.966;2023-02-22T10:05:36;100280.92;;;13.46;57.30
77572;BME280;67214;47.454;18.966;2023-02-22T10:08:12;100279.23;;;13.45;57.52
77572;BME280;67214;47.454;18.966;2023-02-22T10:10:41;100286.66;;;13.42;57.31
77572;BME280;67214;47.454;18.966;2023-02-22T10:13:28;100285.77;;;13.47;57.25
77572;BME280;67214;47.454;18.966;2023-02-22T10:16:20;100288.48;;;13.41;58.19
77572;BME280;67214;47.454;18.966;2023-02-22T10:19:24;100288.56;;;13.36;58.61
77572;BME280;67214;47.454;18.966;2023-02-22T10:25:00;100282.90;;;13.10;58.77
77572;BME280;67214;47.454;18.966;2023-02-22T10:27:39;100280.16;;;13.00;59.10
77572;BME280;67214;47.454;18.966;2023-02-22T10:30:24;100280.04;;;13.02;59.36
77572;BME280;67214;47.454;18.966;2023-02-22T10:32:56;100273.30;;;12.98;59.63
77572;BME280;67214;47.454;18.966;2023-02-22T10:35:32;100280.44;;;12.97;59.42
77572;BME280;67214;47.454;18.966;2023-02-22T10:38:33;100271.05;;;12.93;59.34
77572;BME280;67214;47.454;18.966;2023-02-22T10:40:34;100273.02;;;12.91;59.72
77572;BME280;67214;47.454;18.966;2023-02-22T10:43:04;100274.39;;;12.86;59.52
77572;BME280;67214;47.454;18.966;2023-02-22T10:45:33;100269.43;;;12.96;59.72
77572;BME280;67214;47.454;18.966;2023-02-22T10:48:07;100277.09;;;12.95;59.36
77572;BME280;67214;47.454;18.966;2023-02-22T10:50:39;100275.52;;;12.93;59.27
77572;BME280;67214;47.454;18.966;2023-02-22T10:53:09;100261.89;;;13.01;59.19
77572;BME280;67214;47.454;18.966;2023-02-22T10:56:04;100269.67;;;12.99;58.77
77572;BME280;67214;47.454;18.966;2023-02-22T10:58:07;100265.27;;;13.03;58.61
77572;BME280;67214;47.454;18.966;2023-02-22T11:00:38;100264.25;;;13.10;58.59
77572;BME280;67214;47.454;18.966;2023-02-22T11:03:20;100262.11;;;13.19;58.36
77572;BME280;67214;47.454;18.966;2023-02-22T11:05:49;100256.14;;;13.21;58.36
77572;BME280;67214;47.454;18.966;2023-02-22T11:08:24;100257.34;;;13.23;58.85
77572;BME280;67214;47.454;18.966;2023-02-22T11:10:53;100255.31;;;13.30;58.24
77572;BME280;67214;47.454;18.966;2023-02-22T11:13:34;100260.16;;;13.31;58.23
77572;BME280;67214;47.454;18.966;2023-02-22T11:16:18;100254.42;;;13.35;59.07
77572;BME280;67214;47.454;18.966;2023-02-22T11:18:46;100253.73;;;13.53;57.42
77572;BME280;67214;47.454;18.966;2023-02-22T11:21:20;100253.02;;;13.50;57.63
77572;BME280;67214;47.454;18.966;2023-02-22T11:23:44;100243.70;;;13.50;57.61
77572;BME280;67214;47.454;18.966;2023-02-22T11:26:15;100246.98;;;13.58;57.67
77572;BME280;67214;47.454;18.966;2023-02-22T11:28:48;100244.34;;;13.77;57.62
77572;BME280;67214;47.454;18.966;2023-02-22T11:31:25;100243.91;;;13.72;56.83
77572;BME280;67214;47.454;18.966;2023-02-22T11:33:57;100248.47;;;13.76;56.86
77572;BME280;67214;47.454;18.966;2023-02-22T11:36:34;100239.13;;;13.76;56.83
77572;BME280;67214;47.454;18.966;2023-02-22T11:41:48;100245.95;;;13.65;56.54
77572;BME280;67214;47.454;18.966;2023-02-22T11:44:27;100238.09;;;13.63;57.10
77572;BME280;67214;47.454;18.966;2023-02-22T11:46:57;100230.65;;;13.76;56.61
77572;BME280;67214;47.454;18.966;2023-02-22T11:49:38;100233.54;;;13.69;56.98
77572;BME280;67214;47.454;18.966;2023-02-22T11:52:29;100235.27;;;13.74;57.36
77572;BME280;67214;47.454;18.966;2023-02-22T11:54:57;100233.73;;;13.72;56.67
77572;BME280;67214;47.454;18.966;2023-02-22T12:00:18;100233.05;;;13.60;57.07
77572;BME280;67214;47.454;18.966;2023-02-22T12:05:55;100226.38;;;13.50;57.36
77572;BME280;67214;47.454;18.966;2023-02-22T12:11:16;100233.40;;;13.32;57.97
77572;BME280;67214;47.454;18.966;2023-02-22T12:14:08;100225.33;;;13.28;58.04
77572;BME280;67214;47.454;18.966;2023-02-22T12:19:37;100217.88;;;13.22;58.64
77572;BME280;67214;47.454;18.966;2023-02-22T12:22:26;100214.80;;;13.27;57.78
77572;BME280;67214;47.454;18.966;2023-02-22T12:25:06;100212.34;;;13.29;57.59
77572;BME280;67214;47.454;18.966;2023-02-22T12:27:37;100205.00;;;13.27;58.12
77572;BME280;67214;47.454;18.966;2023-02-22T12:30:06;100221.45;;;13.17;58.45
77572;BME280;67214;47.454;18.966;2023-02-22T12:32:39;100214.02;;;13.11;58.82
77572;BME280;67214;47.454;18.966;2023-02-22T12:40:47;100211.20;;;12.88;59.87
77572;BME280;67214;47.454;18.966;2023-02-22T12:43:28;100205.55;;;12.87;59.65
77572;BME280;67214;47.454;18.966;2023-02-22T12:46:23;100207.05;;;12.80;59.83
77572;BME280;67214;47.454;18.966;2023-02-22T12:55:00;100196.11;;;12.73;60.26
77572;BME280;67214;47.454;18.966;2023-02-22T13:00:26;100193.20;;;12.61;60.74
77572;BME280;67214;47.454;18.966;2023-02-22T13:05:45;100190.83;;;12.58;61.23
77572;BME280;67214;47.454;18.966;2023-02-22T13:13:53;100185.63;;;12.56;60.84
77572;BME280;67214;47.454;18.966;2023-02-22T13:21:57;100185.14;;;12.57;60.74
77572;BME280;67214;47.454;18.966;2023-02-22T13:24:27;100189.09;;;12.63;60.42
77572;BME280;67214;47.454;18.966;2023-02-22T13:27:05;100176.36;;;12.66;60.36
77572;BME280;67214;47.454;18.966;2023-02-22T13:29:45;100180.19;;;12.68;60.20
77572;BME280;67214;47.454;18.966;2023-02-22T13:37:59;100186.03;;;12.77;60.67
77572;BME280;67214;47.454;18.966;2023-02-22T13:43:17;100190.52;;;12.76;59.75
77572;BME280;67214;47.454;18.966;2023-02-22T13:48:19;100180.02;;;12.75;60.19
77572;BME280;67214;47.454;18.966;2023-02-22T13:51:03;100189.57;;;12.87;59.18
77572;BME280;67214;47.454;18.966;2023-02-22T13:53:46;100182.89;;;12.77;60.58
77572;BME280;67214;47.454;18.966;2023-02-22T13:56:12;100185.67;;;12.66;60.97
77572;BME280;67214;47.454;18.966;2023-02-22T13:58:49;100184.87;;;12.60;61.66
77572;BME280;67214;47.454;18.966;2023-02-22T14:01:43;100185.51;;;12.58;61.27
77572;BME280;67214;47.454;18.966;2023-02-22T14:06:46;100182.41;;;12.53;60.16
77572;BME280;67214;47.454;18.966;2023-02-22T14:09:16;100184.70;;;12.52;59.78
77572;BME280;67214;47.454;18.966;2023-02-22T14:11:46;100185.35;;;12.59;57.91
77572;BME280;67214;47.454;18.966;2023-02-22T14:14:15;100185.02;;;12.58;58.22
77572;BME280;67214;47.454;18.966;2023-02-22T14:17:14;100173.13;;;12.63;58.89
77572;BME280;67214;47.454;18.966;2023-02-22T14:19:18;100181.16;;;12.57;58.96
77572;BME280;67214;47.454;18.966;2023-02-22T14:22:01;100182.16;;;12.66;57.98
77572;BME280;67214;47.454;18.966;2023-02-22T14:24:41;100186.47;;;12.57;57.22
77572;BME280;67214;47.454;18.966;2023-02-22T14:27:09;100183.61;;;12.54;59.58
77572;BME280;67214;47.454;18.966;2023-02-22T14:29:37;100174.70;;;12.50;60.93
77572;BME280;67214;47.454;18.966;2023-02-22T14:32:08;100179.37;;;12.42;60.85
77572;BME280;67214;47.454;18.966;2023-02-22T14:34:50;100175.42;;;12.37;60.87
77572;BME280;67214;47.454;18.966;2023-02-22T14:37:29;100168.28;;;12.37;59.57
77572;BME280;67214;47.454;18.966;2023-02-22T14:40:03;100174.09;;;12.37;56.44
77572;BME280;67214;47.454;18.966;2023-02-22T14:42:36;100175.21;;;12.34;56.72
77572;BME280;67214;47.454;18.966;2023-02-22T14:48:00;100171.11;;;12.45;55.75
77572;BME280;67214;47.454;18.966;2023-02-22T14:51:03;100174.13;;;12.46;55.38
77572;BME280;67214;47.454;18.966;2023-02-22T14:56:21;100174.21;;;12.35;55.69